This is the latest recevied weather packets stored in our database for station/object BMCB-30. If no packets are shown the sender has not sent any weather packets the latest 10 day(s).
| Time | Temp. | Humidity | Pressure | Rain* | Wind** | Luminosity | Snow |
|---|---|---|---|---|---|---|---|
| 1777919450 | 12.78° C | 92% | 1013.5 hPa | 0 mm | - | 14 W/m² | - |
| 1777915246 | 13.33° C | 93% | 1013.9 hPa | 0 mm | - | 20 W/m² | - |
| 1777911046 | 14.44° C | 89% | 1013.8 hPa | 0 mm | - | 100 W/m² | - |
| 1777910444 | 14.44° C | 89% | 1013.8 hPa | 0 mm | - | 158 W/m² | - |
| 1777908645 | 13.89° C | 90% | 1014.1 hPa | 0.25 mm | - | 156 W/m² | - |
| 1777905646 | 13.89° C | 94% | 1014.2 hPa | 0.51 mm | - | 166 W/m² | - |
| 1777905047 | 14.44° C | 92% | 1014.3 hPa | 0.51 mm | - | 142 W/m² | - |
| 1777904448 | 14.44° C | 91% | 1014.3 hPa | 0.25 mm | - | 310 W/m² | - |
| 1777900844 | 14.44° C | 91% | 1014.6 hPa | 0.25 mm | - | 182 W/m² | - |
| 1777894849 | 14.44° C | 90% | 1015.1 hPa | 0 mm | - | 290 W/m² | - |
| 1777888248 | 14.44° C | 91% | 1015.6 hPa | 0 mm | - | 176 W/m² | - |
| 1777887644 | 13.89° C | 92% | 1015.6 hPa | 0 mm | - | 156 W/m² | - |
| 1777884046 | 13.89° C | 92% | 1015.5 hPa | 0 mm | - | 126 W/m² | - |
| 1777883446 | 13.89° C | 93% | 1015.4 hPa | 0 mm | - | 140 W/m² | - |
| 1777881044 | 12.78° C | 96% | 1015.3 hPa | 0 mm | - | 110 W/m² | - |
| 1777871445 | 9.44° C | 10% | 1014.4 hPa | 0 mm | - | - | - |
| 1777863643 | 10° C | 98% | 1014.3 hPa | 0 mm | - | 0 W/m² | - |
| 1777861845 | 10.56° C | 97% | 1014.1 hPa | 0 mm | - | 0 W/m² | - |
| 1777860045 | 11.11° C | 97% | 1013.9 hPa | 0 mm | - | 0 W/m² | - |
| 1777857045 | 11.11° C | 98% | 1014.2 hPa | 0 mm | - | 0 W/m² | - |
| 1777852849 | 11.67° C | 96% | 1014.2 hPa | 0 mm | - | 0 W/m² | - |
| 1777852250 | 11.67° C | 97% | 1014.2 hPa | 0 mm | - | 0 W/m² | - |
| 1777848049 | 11.67° C | 97% | 1014.3 hPa | 0 mm | - | 0 W/m² | - |
| 1777846850 | 11.67° C | 98% | 1014.3 hPa | 0 mm | - | 0 W/m² | - |
| 1777844451 | 11.67° C | 97% | 1014.4 hPa | 0 mm | - | 0 W/m² | - |
* Rain latest hour (hover to see other rain measurements)
** Current wind speed in m/s (hover to see current wind gust speed)